Time;durP1;ratioP1;P1;durP2;ratioP2;P2;SDS_P1;SDS_P2;PMS_P1;PMS_P2;Temp;Humidity;BMP_temperature;BMP_pressure;BME280_temperature;BME280_humidity;BME280_pressure;Samples;Min_cycle;Max_cycle;Signal;HPM_P1;HPM_P2
2022/07/05 00:02:45;;;;;;;6.18;5.30;;;;;;;21.40;63.69;100322.66;30853684;28;96800;-80
2022/07/05 00:17:46;;;;;;;6.77;4.93;;;;;;;21.84;62.71;100300.50;30852706;28;97452;-61
2022/07/05 00:32:46;;;;;;;6.37;4.97;;;;;;;22.07;61.17;100299.56;30850884;28;97096;-61
2022/07/05 00:47:47;;;;;;;5.60;4.90;;;;;;;21.24;61.91;100301.72;30863504;28;97418;-85
2022/07/05 01:02:48;;;;;;;6.38;4.40;;;;;;;20.75;62.59;100291.16;30869405;28;97471;-61
2022/07/05 01:17:49;;;;;;;6.60;4.27;;;;;;;20.47;62.97;100254.75;30867053;28;96805;-64
2022/07/05 01:32:50;;;;;;;10.47;4.50;;;;;;;20.32;63.52;100274.16;30864821;28;96824;-61
2022/07/05 01:47:51;;;;;;;;;;;;;;;20.14;63.59;100290.47;30865439;28;96731;-73
2022/07/05 02:02:52;;;;;;;8.10;5.05;;;;;;;19.97;63.88;100306.50;30862549;28;96911;-66
2022/07/05 02:17:52;;;;;;;7.47;5.10;;;;;;;19.75;64.04;100301.56;30861430;28;96636;-83
2022/07/05 02:32:52;;;;;;;7.43;5.43;;;;;;;19.56;64.63;100325.09;30860097;28;96815;-62
2022/07/05 02:47:53;;;;;;;10.55;5.93;;;;;;;19.48;65.27;100315.44;30861711;28;97630;-65
2022/07/05 03:02:53;;;;;;;6.70;5.45;;;;;;;19.49;65.55;100330.59;30857137;28;96634;-61
2022/07/05 03:17:53;;;;;;;9.55;5.70;;;;;;;19.60;65.58;100340.63;30856348;28;96638;-88
2022/07/05 03:32:54;;;;;;;7.57;5.65;;;;;;;19.65;65.42;100366.16;30854231;28;97214;-61
2022/07/05 03:47:58;;;;;;;9.18;7.35;;;;;;;19.70;65.72;100386.03;30850028;28;97463;-82
2022/07/05 04:02:58;;;;;;;8.30;6.17;;;;;;;19.70;65.47;100409.56;30850639;28;97097;-77
2022/07/05 04:17:59;;;;;;;7.53;5.57;;;;;;;19.79;65.56;100400.06;30856217;28;98402;-63
2022/07/05 04:32:59;;;;;;;12.05;5.60;;;;;;;19.75;65.26;100382.66;30866572;28;97156;-62
2022/07/05 04:47:59;;;;;;;8.65;5.93;;;;;;;19.72;65.49;100388.50;30865034;28;101204;-61
2022/07/05 05:03:00;;;;;;;14.40;7.03;;;;;;;19.82;65.60;100388.84;30859515;28;97130;-62
2022/07/05 05:18:00;;;;;;;7.90;6.65;;;;;;;19.88;65.82;100420.38;30861595;28;99963;-63
2022/07/05 05:33:00;;;;;;;7.45;6.75;;;;;;;19.90;65.70;100439.06;30862403;28;97245;-67
2022/07/05 05:48:01;;;;;;;17.70;9.43;;;;;;;19.99;65.76;100435.00;30854513;28;97380;-84
2022/07/05 06:03:01;;;;;;;10.52;6.03;;;;;;;20.43;65.86;100449.19;30852286;28;98076;-63
2022/07/05 06:18:03;;;;;;;7.90;6.28;;;;;;;20.81;65.10;100459.97;30856543;28;97152;-64
2022/07/05 06:33:03;;;;;;;7.60;6.53;;;;;;;20.97;64.98;100475.53;30855341;28;97824;-63
2022/07/05 06:48:06;;;;;;;22.97;16.17;;;;;;;20.88;65.00;100494.00;30854130;28;98590;-79
2022/07/05 07:03:06;;;;;;;21.40;11.13;;;;;;;20.69;66.03;100497.81;30851095;28;97641;-63
2022/07/05 07:18:07;;;;;;;30.13;13.97;;;;;;;20.62;66.68;100514.94;30852930;28;97504;-75
2022/07/05 07:33:07;;;;;;;7.23;6.03;;;;;;;20.91;66.90;100517.91;30849554;28;97464;-73
2022/07/05 07:48:07;;;;;;;9.73;4.73;;;;;;;21.15;66.27;100530.69;30850316;28;96783;-88
2022/07/05 08:03:08;;;;;;;12.83;10.53;;;;;;;21.37;64.92;100512.81;30874421;28;100266;-87
2022/07/05 08:33:27;;;;;;;6.33;4.80;;;;;;;20.80;64.19;100524.09;30872245;28;96882;-83
2022/07/05 08:48:28;;;;;;;5.40;3.67;;;;;;;20.42;64.10;100527.91;30882176;28;96914;-86
2022/07/05 09:03:34;;;;;;;4.30;3.20;;;;;;;19.91;64.28;100538.06;30864513;28;96767;-73
2022/07/05 09:18:43;;;;;;;40.73;27.57;;;;;;;19.76;64.60;100530.25;30870668;28;97085;-70
2022/07/05 09:33:52;;;;;;;5.70;2.93;;;;;;;19.50;64.92;100536.75;30559445;22;97397;-63
2022/07/05 09:48:53;;;;;;;5.00;2.70;;;;;;;19.60;64.97;100532.50;30393319;28;96591;-64
2022/07/05 10:03:55;;;;;;;8.05;5.60;;;;;;;19.61;65.38;100549.53;30380664;28;102852;-79
2022/07/05 10:18:56;;;;;;;8.73;5.60;;;;;;;19.69;65.52;100551.13;30378610;28;96675;-80
2022/07/05 10:34:07;;;;;;;5.03;3.30;;;;;;;20.11;65.23;100544.06;30378410;28;97139;-77
2022/07/05 10:49:20;;;;;;;18.10;10.20;;;;;;;21.11;64.34;100538.44;30373234;28;98925;-70
2022/07/05 11:04:27;;;;;;;7.00;3.57;;;;;;;21.40;63.12;100542.16;30372782;28;96783;-63
2022/07/05 11:19:27;;;;;;;4.20;3.07;;;;;;;22.57;61.88;100528.75;30372411;28;97229;-69
2022/07/05 11:34:34;;;;;;;4.10;2.90;;;;;;;23.79;58.25;100535.72;30374868;28;96739;-66
2022/07/05 11:49:36;;;;;;;5.90;2.90;;;;;;;24.48;55.73;100532.56;30461938;28;97223;-71
2022/07/05 12:04:37;;;;;;;7.07;2.60;;;;;;;26.63;52.04;100520.75;30419389;28;96847;-70
2022/07/05 12:19:37;;;;;;;5.57;2.03;;;;;;;29.19;46.76;100519.53;30521184;28;97487;-68
2022/07/05 12:34:37;;;;;;;7.53;2.03;;;;;;;29.34;42.84;100518.63;30427381;28;97104;-78
2022/07/05 12:49:55;;;;;;;4.45;1.70;;;;;;;29.78;40.74;100512.13;30397660;28;97156;-62
2022/07/05 13:04:55;;;;;;;3.50;1.83;;;;;;;29.64;39.55;100501.03;30460737;28;97342;-65
2022/07/05 13:19:55;;;;;;;2.47;1.83;;;;;;;29.55;38.41;100480.81;30484883;28;100400;-63
2022/07/05 13:34:56;;;;;;;2.70;1.48;;;;;;;29.07;38.11;100472.47;30484879;28;97247;-61
2022/07/05 14:05:16;;;;;;;2.87;1.70;;;;;;;28.01;37.76;100469.84;30504719;28;96658;-71
2022/07/05 14:20:17;;;;;;;3.70;1.57;;;;;;;28.15;37.94;100469.22;30489356;28;97217;-66
2022/07/05 14:35:18;;;;;;;2.88;1.83;;;;;;;28.07;38.20;100454.19;30483075;28;97442;-80
2022/07/05 14:50:18;;;;;;;2.30;1.57;;;;;;;27.70;38.04;100445.28;30490581;28;96799;-62
2022/07/05 15:05:19;;;;;;;4.32;1.60;;;;;;;27.09;38.38;100435.28;30487887;28;97574;-62
2022/07/05 15:20:22;;;;;;;2.35;1.33;;;;;;;26.47;37.87;100418.00;30488769;28;96960;-61
2022/07/05 15:35:22;;;;;;;6.90;1.77;;;;;;;25.83;38.59;100415.38;30489808;28;97822;-75
2022/07/05 15:50:22;;;;;;;2.72;1.30;;;;;;;25.83;38.77;100403.59;30488742;28;96788;-61
2022/07/05 16:05:23;;;;;;;2.42;1.52;;;;;;;25.55;38.69;100397.50;30487821;28;96660;-61
2022/07/05 16:20:24;;;;;;;2.80;1.50;;;;;;;25.23;39.22;100401.09;30500697;28;96719;-61
2022/07/05 16:35:24;;;;;;;1.88;1.20;;;;;;;25.05;39.58;100415.16;30501994;28;96778;-60
2022/07/05 16:50:24;;;;;;;2.42;1.40;;;;;;;24.80;40.01;100400.25;30490038;28;96825;-61
2022/07/05 17:05:25;;;;;;;3.08;1.60;;;;;;;24.20;40.59;100389.31;30495390;28;97004;-61
2022/07/05 17:20:25;;;;;;;3.78;1.85;;;;;;;23.91;41.53;100399.63;30404876;28;97188;-68
2022/07/05 17:35:25;;;;;;;2.88;1.73;;;;;;;23.66;42.40;100374.53;30385409;28;97295;-60
2022/07/05 17:50:26;;;;;;;2.72;1.55;;;;;;;23.31;42.69;100388.50;30374884;28;97772;-60
2022/07/05 18:05:26;;;;;;;;;;;;;;;22.98;43.37;100371.94;30416244;28;97254;-61
2022/07/05 18:20:27;;;;;;;2.33;1.43;;;;;;;22.53;44.29;100378.28;30376798;28;97082;-60
2022/07/05 18:35:27;;;;;;;4.30;1.73;;;;;;;21.98;45.97;100382.41;30375409;28;96929;-75
2022/07/05 18:50:27;;;;;;;2.30;1.60;;;;;;;21.42;47.40;100382.03;30374862;28;97075;-60
2022/07/05 19:05:28;;;;;;;4.33;2.00;;;;;;;20.86;49.24;100389.69;30376147;28;97473;-75
2022/07/05 19:20:28;;;;;;;14.25;5.68;;;;;;;20.38;51.11;100407.66;30374317;28;97733;-69
2022/07/05 19:35:29;;;;;;;4.85;2.80;;;;;;;19.83;53.10;100420.22;30369457;28;97355;-64
2022/07/05 19:50:29;;;;;;;5.50;2.40;;;;;;;19.50;54.99;100412.47;30389570;28;97403;-61
2022/07/05 20:05:30;;;;;;;5.68;2.95;;;;;;;19.22;56.58;100422.69;30415850;28;110531;-70
2022/07/05 20:20:30;;;;;;;6.40;3.13;;;;;;;18.82;58.22;100428.41;30519382;28;97332;-61
2022/07/05 20:35:30;;;;;;;8.73;3.72;;;;;;;18.40;59.50;100422.66;30532192;28;97601;-61
2022/07/05 20:50:31;;;;;;;10.15;5.07;;;;;;;18.23;60.88;100415.06;30517142;28;108435;-61
2022/07/05 21:05:32;;;;;;;;;;;;;;;17.97;62.03;100423.28;30501437;28;97473;-61
2022/07/05 21:20:33;;;;;;;29.67;18.13;;;;;;;17.62;63.35;100416.31;30494983;28;97685;-66
2022/07/05 21:35:33;;;;;;;9.15;4.20;;;;;;;17.43;64.13;100405.38;30472827;28;97982;-61
2022/07/05 21:50:33;;;;;;;12.68;7.07;;;;;;;17.17;64.75;100410.81;30483610;28;98505;-65
2022/07/05 22:05:34;;;;;;;17.05;8.77;;;;;;;17.04;65.79;100408.94;30496271;28;97063;-63
2022/07/05 22:20:34;;;;;;;9.30;6.10;;;;;;;16.82;66.44;100413.66;30499530;28;97516;-64
2022/07/05 22:35:35;;;;;;;19.58;8.13;;;;;;;16.65;67.29;100405.13;30498338;28;97436;-63
2022/07/05 22:50:35;;;;;;;7.88;6.15;;;;;;;16.47;67.97;100382.38;30497613;28;99166;-61
2022/07/05 23:05:35;;;;;;;17.95;10.75;;;;;;;16.26;69.23;100404.06;30495647;28;98232;-79
2022/07/05 23:20:36;;;;;;;21.85;14.57;;;;;;;16.14;69.93;100396.56;30493999;28;96873;-79
2022/07/05 23:35:36;;;;;;;15.32;9.63;;;;;;;15.93;70.42;100397.53;30493145;28;96738;-61
2022/07/05 23:50:36;;;;;;;13.70;8.68;;;;;;;15.81;70.79;100394.56;30493226;28;97130;-63
